sensor_id;sensor_type;location;lat;lon;timestamp;temperature;humidity
4584;DHT22;2304;47.606;12.186;2023-03-14T00:01:40;13.10;47.90
4584;DHT22;2304;47.606;12.186;2023-03-14T00:06:44;13.10;49.60
4584;DHT22;2304;47.606;12.186;2023-03-14T00:11:47;13.10;50.00
4584;DHT22;2304;47.606;12.186;2023-03-14T00:16:50;13.30;51.90
4584;DHT22;2304;47.606;12.186;2023-03-14T00:21:52;13.10;52.70
4584;DHT22;2304;47.606;12.186;2023-03-14T00:26:53;13.10;53.10
4584;DHT22;2304;47.606;12.186;2023-03-14T00:31:57;13.00;53.80
4584;DHT22;2304;47.606;12.186;2023-03-14T00:36:59;13.00;54.30
4584;DHT22;2304;47.606;12.186;2023-03-14T00:42:00;12.90;54.60
4584;DHT22;2304;47.606;12.186;2023-03-14T00:47:04;12.90;54.90
4584;DHT22;2304;47.606;12.186;2023-03-14T00:52:05;12.80;55.40
4584;DHT22;2304;47.606;12.186;2023-03-14T00:57:07;12.60;56.50
4584;DHT22;2304;47.606;12.186;2023-03-14T01:02:10;12.60;56.60
4584;DHT22;2304;47.606;12.186;2023-03-14T01:07:12;12.60;56.70
4584;DHT22;2304;47.606;12.186;2023-03-14T01:12:14;12.50;56.40
4584;DHT22;2304;47.606;12.186;2023-03-14T01:17:17;12.50;56.50
4584;DHT22;2304;47.606;12.186;2023-03-14T01:22:19;12.40;56.20
4584;DHT22;2304;47.606;12.186;2023-03-14T01:27:21;12.30;56.60
4584;DHT22;2304;47.606;12.186;2023-03-14T01:32:25;12.30;57.20
4584;DHT22;2304;47.606;12.186;2023-03-14T01:37:27;12.40;57.30
4584;DHT22;2304;47.606;12.186;2023-03-14T01:42:28;12.40;57.60
4584;DHT22;2304;47.606;12.186;2023-03-14T01:47:32;12.40;58.00
4584;DHT22;2304;47.606;12.186;2023-03-14T01:52:36;12.30;58.30
4584;DHT22;2304;47.606;12.186;2023-03-14T01:57:41;12.30;59.40
4584;DHT22;2304;47.606;12.186;2023-03-14T02:02:48;12.40;60.10
4584;DHT22;2304;47.606;12.186;2023-03-14T02:07:52;12.40;60.10
4584;DHT22;2304;47.606;12.186;2023-03-14T02:12:56;12.50;60.20
4584;DHT22;2304;47.606;12.186;2023-03-14T02:18:01;12.50;60.50
4584;DHT22;2304;47.606;12.186;2023-03-14T02:23:04;12.50;60.60
4584;DHT22;2304;47.606;12.186;2023-03-14T02:28:07;12.40;61.00
4584;DHT22;2304;47.606;12.186;2023-03-14T02:33:11;12.40;61.00
4584;DHT22;2304;47.606;12.186;2023-03-14T02:38:19;12.50;61.00
4584;DHT22;2304;47.606;12.186;2023-03-14T02:43:24;12.50;61.20
4584;DHT22;2304;47.606;12.186;2023-03-14T02:48:29;12.50;61.50
4584;DHT22;2304;47.606;12.186;2023-03-14T02:53:33;12.50;62.20
4584;DHT22;2304;47.606;12.186;2023-03-14T02:58:37;12.50;63.00
4584;DHT22;2304;47.606;12.186;2023-03-14T03:03:39;12.40;63.80
4584;DHT22;2304;47.606;12.186;2023-03-14T03:08:41;12.40;64.30
4584;DHT22;2304;47.606;12.186;2023-03-14T03:13:44;12.30;65.50
4584;DHT22;2304;47.606;12.186;2023-03-14T03:18:46;12.30;66.90
4584;DHT22;2304;47.606;12.186;2023-03-14T03:23:48;12.20;68.10
4584;DHT22;2304;47.606;12.186;2023-03-14T03:28:51;12.10;69.70
4584;DHT22;2304;47.606;12.186;2023-03-14T03:33:53;12.00;71.30
4584;DHT22;2304;47.606;12.186;2023-03-14T03:38:55;11.90;71.80
4584;DHT22;2304;47.606;12.186;2023-03-14T03:43:58;11.80;71.70
4584;DHT22;2304;47.606;12.186;2023-03-14T03:49:00;11.80;71.80
4584;DHT22;2304;47.606;12.186;2023-03-14T03:54:02;11.70;72.50
4584;DHT22;2304;47.606;12.186;2023-03-14T03:59:05;11.60;72.70
4584;DHT22;2304;47.606;12.186;2023-03-14T04:04:07;11.60;72.80
4584;DHT22;2304;47.606;12.186;2023-03-14T04:09:09;11.60;72.90
4584;DHT22;2304;47.606;12.186;2023-03-14T04:14:13;11.60;73.20
4584;DHT22;2304;47.606;12.186;2023-03-14T04:19:15;11.50;75.20
4584;DHT22;2304;47.606;12.186;2023-03-14T04:24:16;11.30;76.30
4584;DHT22;2304;47.606;12.186;2023-03-14T04:29:20;11.20;78.50
4584;DHT22;2304;47.606;12.186;2023-03-14T04:34:21;11.20;79.30
4584;DHT22;2304;47.606;12.186;2023-03-14T04:39:23;11.20;78.60
4584;DHT22;2304;47.606;12.186;2023-03-14T04:44:26;11.10;78.30
4584;DHT22;2304;47.606;12.186;2023-03-14T04:49:28;11.10;78.10
4584;DHT22;2304;47.606;12.186;2023-03-14T04:54:30;11.10;78.00
4584;DHT22;2304;47.606;12.186;2023-03-14T04:59:33;11.00;77.10
4584;DHT22;2304;47.606;12.186;2023-03-14T05:04:35;11.00;78.10
4584;DHT22;2304;47.606;12.186;2023-03-14T05:09:37;10.90;78.50
4584;DHT22;2304;47.606;12.186;2023-03-14T05:14:40;10.90;77.90
4584;DHT22;2304;47.606;12.186;2023-03-14T05:19:42;10.80;78.30
4584;DHT22;2304;47.606;12.186;2023-03-14T05:24:44;10.60;82.00
4584;DHT22;2304;47.606;12.186;2023-03-14T05:29:48;10.40;84.20
4584;DHT22;2304;47.606;12.186;2023-03-14T05:34:50;10.30;85.50
4584;DHT22;2304;47.606;12.186;2023-03-14T05:39:52;10.30;86.10
4584;DHT22;2304;47.606;12.186;2023-03-14T05:44:55;10.30;86.30
4584;DHT22;2304;47.606;12.186;2023-03-14T05:49:56;10.30;87.10
4584;DHT22;2304;47.606;12.186;2023-03-14T05:54:58;10.30;87.20
4584;DHT22;2304;47.606;12.186;2023-03-14T06:00:02;10.30;87.40
4584;DHT22;2304;47.606;12.186;2023-03-14T06:05:04;10.20;87.90
4584;DHT22;2304;47.606;12.186;2023-03-14T06:10:07;10.20;88.40
4584;DHT22;2304;47.606;12.186;2023-03-14T06:15:11;10.10;89.30
4584;DHT22;2304;47.606;12.186;2023-03-14T06:20:12;10.10;89.30
4584;DHT22;2304;47.606;12.186;2023-03-14T06:25:14;10.10;88.50
4584;DHT22;2304;47.606;12.186;2023-03-14T06:30:18;10.10;87.70
4584;DHT22;2304;47.606;12.186;2023-03-14T06:35:20;10.00;86.80
4584;DHT22;2304;47.606;12.186;2023-03-14T06:40:22;10.00;87.70
4584;DHT22;2304;47.606;12.186;2023-03-14T06:45:25;9.90;87.60
4584;DHT22;2304;47.606;12.186;2023-03-14T06:50:27;9.90;88.10
4584;DHT22;2304;47.606;12.186;2023-03-14T06:55:29;9.90;88.10
4584;DHT22;2304;47.606;12.186;2023-03-14T07:00:32;10.00;87.80
4584;DHT22;2304;47.606;12.186;2023-03-14T07:05:34;10.00;87.00
4584;DHT22;2304;47.606;12.186;2023-03-14T07:10:35;10.00;86.90
4584;DHT22;2304;47.606;12.186;2023-03-14T07:15:39;10.10;86.50
4584;DHT22;2304;47.606;12.186;2023-03-14T07:20:41;10.10;85.80
4584;DHT22;2304;47.606;12.186;2023-03-14T07:25:42;10.20;85.40
4584;DHT22;2304;47.606;12.186;2023-03-14T07:30:47;10.20;85.30
4584;DHT22;2304;47.606;12.186;2023-03-14T07:35:49;10.20;85.00
4584;DHT22;2304;47.606;12.186;2023-03-14T07:40:58;10.20;84.70
4584;DHT22;2304;47.606;12.186;2023-03-14T07:46:02;10.20;85.00
4584;DHT22;2304;47.606;12.186;2023-03-14T07:51:04;10.20;85.10
4584;DHT22;2304;47.606;12.186;2023-03-14T07:56:06;10.20;85.50
4584;DHT22;2304;47.606;12.186;2023-03-14T08:01:10;10.20;85.60
4584;DHT22;2304;47.606;12.186;2023-03-14T08:06:11;10.20;84.90
4584;DHT22;2304;47.606;12.186;2023-03-14T08:11:13;10.20;84.90
4584;DHT22;2304;47.606;12.186;2023-03-14T08:16:16;10.30;85.50
4584;DHT22;2304;47.606;12.186;2023-03-14T08:21:18;10.30;85.50
4584;DHT22;2304;47.606;12.186;2023-03-14T08:26:20;10.30;84.50
4584;DHT22;2304;47.606;12.186;2023-03-14T08:31:23;10.30;85.20
4584;DHT22;2304;47.606;12.186;2023-03-14T08:36:25;10.30;85.40
4584;DHT22;2304;47.606;12.186;2023-03-14T08:41:27;10.30;85.20
4584;DHT22;2304;47.606;12.186;2023-03-14T08:46:30;10.30;85.60
4584;DHT22;2304;47.606;12.186;2023-03-14T08:51:32;10.30;84.60
4584;DHT22;2304;47.606;12.186;2023-03-14T08:56:34;10.50;84.40
4584;DHT22;2304;47.606;12.186;2023-03-14T09:01:39;10.40;83.70
4584;DHT22;2304;47.606;12.186;2023-03-14T09:06:41;10.50;83.60
4584;DHT22;2304;47.606;12.186;2023-03-14T09:11:43;10.20;82.60
4584;DHT22;2304;47.606;12.186;2023-03-14T09:16:46;10.10;81.70
4584;DHT22;2304;47.606;12.186;2023-03-14T09:21:48;10.20;80.70
4584;DHT22;2304;47.606;12.186;2023-03-14T09:26:50;9.70;77.20
4584;DHT22;2304;47.606;12.186;2023-03-14T09:31:53;9.60;75.10
4584;DHT22;2304;47.606;12.186;2023-03-14T09:36:55;9.80;74.00
4584;DHT22;2304;47.606;12.186;2023-03-14T09:41:58;9.50;75.70
4584;DHT22;2304;47.606;12.186;2023-03-14T09:47:07;9.20;75.90
4584;DHT22;2304;47.606;12.186;2023-03-14T09:52:14;9.10;76.90
4584;DHT22;2304;47.606;12.186;2023-03-14T09:57:18;9.00;77.50
4584;DHT22;2304;47.606;12.186;2023-03-14T10:02:24;9.00;78.70
4584;DHT22;2304;47.606;12.186;2023-03-14T10:07:29;9.10;79.10
4584;DHT22;2304;47.606;12.186;2023-03-14T10:12:32;9.10;78.60
4584;DHT22;2304;47.606;12.186;2023-03-14T10:17:41;9.10;78.90
4584;DHT22;2304;47.606;12.186;2023-03-14T10:22:43;9.10;78.20
4584;DHT22;2304;47.606;12.186;2023-03-14T10:27:46;9.20;77.60
4584;DHT22;2304;47.606;12.186;2023-03-14T10:32:49;9.10;76.40
4584;DHT22;2304;47.606;12.186;2023-03-14T10:37:53;9.00;74.50
4584;DHT22;2304;47.606;12.186;2023-03-14T10:42:58;8.70;75.00
4584;DHT22;2304;47.606;12.186;2023-03-14T10:48:18;8.50;74.10
4584;DHT22;2304;47.606;12.186;2023-03-14T10:53:20;8.50;74.40
4584;DHT22;2304;47.606;12.186;2023-03-14T10:58:25;8.30;77.00
4584;DHT22;2304;47.606;12.186;2023-03-14T11:03:31;8.40;81.30
4584;DHT22;2304;47.606;12.186;2023-03-14T11:08:40;8.30;84.70
4584;DHT22;2304;47.606;12.186;2023-03-14T11:13:52;8.60;82.70
4584;DHT22;2304;47.606;12.186;2023-03-14T11:19:20;8.80;85.40
4584;DHT22;2304;47.606;12.186;2023-03-14T11:24:36;9.00;84.80
4584;DHT22;2304;47.606;12.186;2023-03-14T11:29:41;8.80;80.20
4584;DHT22;2304;47.606;12.186;2023-03-14T11:34:51;8.90;79.80
4584;DHT22;2304;47.606;12.186;2023-03-14T11:40:00;9.30;83.40
4584;DHT22;2304;47.606;12.186;2023-03-14T11:45:10;9.80;81.60
4584;DHT22;2304;47.606;12.186;2023-03-14T11:50:20;10.20;74.40
4584;DHT22;2304;47.606;12.186;2023-03-14T11:55:26;10.70;70.80
4584;DHT22;2304;47.606;12.186;2023-03-14T12:00:29;11.40;70.00
4584;DHT22;2304;47.606;12.186;2023-03-14T12:05:43;11.30;67.70
4584;DHT22;2304;47.606;12.186;2023-03-14T12:10:49;11.20;68.10
4584;DHT22;2304;47.606;12.186;2023-03-14T12:15:55;11.40;66.70
4584;DHT22;2304;47.606;12.186;2023-03-14T12:21:00;11.60;64.00
4584;DHT22;2304;47.606;12.186;2023-03-14T12:26:16;12.00;65.90
4584;DHT22;2304;47.606;12.186;2023-03-14T12:31:37;12.60;67.40
4584;DHT22;2304;47.606;12.186;2023-03-14T12:36:54;12.90;64.10
4584;DHT22;2304;47.606;12.186;2023-03-14T12:42:02;12.70;60.50
4584;DHT22;2304;47.606;12.186;2023-03-14T12:47:41;12.10;60.00
4584;DHT22;2304;47.606;12.186;2023-03-14T12:58:14;11.60;62.50
4584;DHT22;2304;47.606;12.186;2023-03-14T13:03:19;11.30;63.30
4584;DHT22;2304;47.606;12.186;2023-03-14T13:08:36;11.10;63.90
4584;DHT22;2304;47.606;12.186;2023-03-14T13:13:42;11.00;64.50
4584;DHT22;2304;47.606;12.186;2023-03-14T13:18:48;11.10;66.10
4584;DHT22;2304;47.606;12.186;2023-03-14T13:23:58;11.10;65.90
4584;DHT22;2304;47.606;12.186;2023-03-14T13:29:00;11.00;66.70
4584;DHT22;2304;47.606;12.186;2023-03-14T13:34:10;10.90;66.40
4584;DHT22;2304;47.606;12.186;2023-03-14T13:39:18;10.60;66.60
4584;DHT22;2304;47.606;12.186;2023-03-14T13:44:29;10.50;66.70
4584;DHT22;2304;47.606;12.186;2023-03-14T13:49:33;10.50;66.20
4584;DHT22;2304;47.606;12.186;2023-03-14T13:54:38;10.50;66.20
4584;DHT22;2304;47.606;12.186;2023-03-14T13:59:40;10.50;66.10
4584;DHT22;2304;47.606;12.186;2023-03-14T14:04:42;10.50;66.70
4584;DHT22;2304;47.606;12.186;2023-03-14T14:09:47;10.50;68.10
4584;DHT22;2304;47.606;12.186;2023-03-14T14:14:53;10.50;68.70
4584;DHT22;2304;47.606;12.186;2023-03-14T14:19:57;10.40;68.30
4584;DHT22;2304;47.606;12.186;2023-03-14T14:25:01;10.40;69.30
4584;DHT22;2304;47.606;12.186;2023-03-14T14:30:05;10.40;70.00
4584;DHT22;2304;47.606;12.186;2023-03-14T14:35:10;10.40;71.30
4584;DHT22;2304;47.606;12.186;2023-03-14T14:40:25;10.40;72.60
4584;DHT22;2304;47.606;12.186;2023-03-14T14:45:28;10.40;72.10
4584;DHT22;2304;47.606;12.186;2023-03-14T14:50:32;10.50;73.20
4584;DHT22;2304;47.606;12.186;2023-03-14T14:55:40;10.40;74.70
4584;DHT22;2304;47.606;12.186;2023-03-14T15:00:50;10.40;76.00
4584;DHT22;2304;47.606;12.186;2023-03-14T15:05:53;10.50;75.50
4584;DHT22;2304;47.606;12.186;2023-03-14T15:10:58;10.60;76.50
4584;DHT22;2304;47.606;12.186;2023-03-14T15:15:59;10.60;75.60
4584;DHT22;2304;47.606;12.186;2023-03-14T15:21:02;10.60;75.30
4584;DHT22;2304;47.606;12.186;2023-03-14T15:26:11;10.60;74.60
4584;DHT22;2304;47.606;12.186;2023-03-14T15:31:15;10.60;75.00
4584;DHT22;2304;47.606;12.186;2023-03-14T15:36:23;10.60;76.80
4584;DHT22;2304;47.606;12.186;2023-03-14T15:41:28;10.60;77.70
4584;DHT22;2304;47.606;12.186;2023-03-14T15:46:29;10.40;79.50
4584;DHT22;2304;47.606;12.186;2023-03-14T15:51:31;10.30;82.80
4584;DHT22;2304;47.606;12.186;2023-03-14T15:56:35;10.30;78.50
4584;DHT22;2304;47.606;12.186;2023-03-14T16:01:36;10.50;80.00
4584;DHT22;2304;47.606;12.186;2023-03-14T16:06:38;10.70;79.60
4584;DHT22;2304;47.606;12.186;2023-03-14T16:11:42;10.80;79.50
4584;DHT22;2304;47.606;12.186;2023-03-14T16:16:44;10.80;79.30
4584;DHT22;2304;47.606;12.186;2023-03-14T16:21:46;10.80;76.90
4584;DHT22;2304;47.606;12.186;2023-03-14T16:26:49;10.80;77.00
4584;DHT22;2304;47.606;12.186;2023-03-14T16:31:51;10.80;77.20
4584;DHT22;2304;47.606;12.186;2023-03-14T16:36:52;10.80;75.60
4584;DHT22;2304;47.606;12.186;2023-03-14T16:41:56;10.70;74.60
4584;DHT22;2304;47.606;12.186;2023-03-14T16:46:58;10.70;72.50
4584;DHT22;2304;47.606;12.186;2023-03-14T16:52:00;10.60;72.60
4584;DHT22;2304;47.606;12.186;2023-03-14T16:57:03;10.30;68.40
4584;DHT22;2304;47.606;12.186;2023-03-14T17:02:05;10.20;68.10
4584;DHT22;2304;47.606;12.186;2023-03-14T17:07:08;10.10;65.60
4584;DHT22;2304;47.606;12.186;2023-03-14T17:12:11;10.20;64.50
4584;DHT22;2304;47.606;12.186;2023-03-14T17:17:13;9.90;64.30
4584;DHT22;2304;47.606;12.186;2023-03-14T17:22:14;9.90;63.30
4584;DHT22;2304;47.606;12.186;2023-03-14T17:27:18;9.90;60.90
4584;DHT22;2304;47.606;12.186;2023-03-14T17:32:20;9.80;60.70
4584;DHT22;2304;47.606;12.186;2023-03-14T17:37:22;9.60;59.80
4584;DHT22;2304;47.606;12.186;2023-03-14T17:42:25;9.60;58.20
4584;DHT22;2304;47.606;12.186;2023-03-14T17:47:27;9.40;57.40
4584;DHT22;2304;47.606;12.186;2023-03-14T17:52:29;9.50;53.90
4584;DHT22;2304;47.606;12.186;2023-03-14T17:57:32;9.80;58.70
4584;DHT22;2304;47.606;12.186;2023-03-14T18:02:34;9.60;57.00
4584;DHT22;2304;47.606;12.186;2023-03-14T18:07:37;9.50;58.50
4584;DHT22;2304;47.606;12.186;2023-03-14T18:12:40;9.50;55.20
4584;DHT22;2304;47.606;12.186;2023-03-14T18:17:42;9.50;55.20
4584;DHT22;2304;47.606;12.186;2023-03-14T18:22:44;9.50;54.90
4584;DHT22;2304;47.606;12.186;2023-03-14T18:27:47;9.50;57.10
4584;DHT22;2304;47.606;12.186;2023-03-14T18:32:48;9.40;56.80
4584;DHT22;2304;47.606;12.186;2023-03-14T18:37:50;9.60;55.30
4584;DHT22;2304;47.606;12.186;2023-03-14T18:42:53;9.30;53.90
4584;DHT22;2304;47.606;12.186;2023-03-14T18:47:55;9.30;53.90
4584;DHT22;2304;47.606;12.186;2023-03-14T18:52:57;9.30;55.50
4584;DHT22;2304;47.606;12.186;2023-03-14T18:58:00;9.40;56.30
4584;DHT22;2304;47.606;12.186;2023-03-14T19:03:02;9.30;56.20
4584;DHT22;2304;47.606;12.186;2023-03-14T19:08:04;9.30;58.50
4584;DHT22;2304;47.606;12.186;2023-03-14T19:13:07;9.20;58.70
4584;DHT22;2304;47.606;12.186;2023-03-14T19:18:09;9.20;59.00
4584;DHT22;2304;47.606;12.186;2023-03-14T19:23:11;9.10;59.80
4584;DHT22;2304;47.606;12.186;2023-03-14T19:28:14;9.30;59.60
4584;DHT22;2304;47.606;12.186;2023-03-14T19:33:17;8.90;56.90
4584;DHT22;2304;47.606;12.186;2023-03-14T19:38:19;9.20;53.70
4584;DHT22;2304;47.606;12.186;2023-03-14T19:43:22;9.00;56.00
4584;DHT22;2304;47.606;12.186;2023-03-14T19:48:24;8.80;58.60
4584;DHT22;2304;47.606;12.186;2023-03-14T19:53:29;8.70;60.70
4584;DHT22;2304;47.606;12.186;2023-03-14T19:58:33;8.70;60.50
4584;DHT22;2304;47.606;12.186;2023-03-14T20:03:35;8.60;61.10
4584;DHT22;2304;47.606;12.186;2023-03-14T20:08:37;8.60;59.90
4584;DHT22;2304;47.606;12.186;2023-03-14T20:13:40;8.60;60.10
4584;DHT22;2304;47.606;12.186;2023-03-14T20:18:43;8.60;60.80
4584;DHT22;2304;47.606;12.186;2023-03-14T20:23:45;8.60;61.90
4584;DHT22;2304;47.606;12.186;2023-03-14T20:28:50;8.50;62.60
4584;DHT22;2304;47.606;12.186;2023-03-14T20:33:51;8.50;62.90
4584;DHT22;2304;47.606;12.186;2023-03-14T20:38:54;8.50;62.70
4584;DHT22;2304;47.606;12.186;2023-03-14T20:43:57;8.50;62.10
4584;DHT22;2304;47.606;12.186;2023-03-14T20:48:59;8.50;62.70
4584;DHT22;2304;47.606;12.186;2023-03-14T20:54:02;8.40;62.70
4584;DHT22;2304;47.606;12.186;2023-03-14T20:59:05;8.40;63.90
4584;DHT22;2304;47.606;12.186;2023-03-14T21:04:07;8.40;64.30
4584;DHT22;2304;47.606;12.186;2023-03-14T21:09:08;8.40;64.50
4584;DHT22;2304;47.606;12.186;2023-03-14T21:14:12;8.30;64.80
4584;DHT22;2304;47.606;12.186;2023-03-14T21:19:13;8.20;63.60
4584;DHT22;2304;47.606;12.186;2023-03-14T21:24:15;8.10;63.30
4584;DHT22;2304;47.606;12.186;2023-03-14T21:29:18;8.30;63.30
4584;DHT22;2304;47.606;12.186;2023-03-14T21:34:21;8.10;63.20
4584;DHT22;2304;47.606;12.186;2023-03-14T21:39:26;8.20;63.60
4584;DHT22;2304;47.606;12.186;2023-03-14T21:44:29;8.10;64.00
4584;DHT22;2304;47.606;12.186;2023-03-14T21:49:36;8.10;65.00
4584;DHT22;2304;47.606;12.186;2023-03-14T21:54:38;8.40;64.90
4584;DHT22;2304;47.606;12.186;2023-03-14T21:59:44;8.00;64.50
4584;DHT22;2304;47.606;12.186;2023-03-14T22:04:46;8.00;64.10
4584;DHT22;2304;47.606;12.186;2023-03-14T22:09:48;7.90;65.10
4584;DHT22;2304;47.606;12.186;2023-03-14T22:14:51;7.90;66.60
4584;DHT22;2304;47.606;12.186;2023-03-14T22:19:53;7.80;65.90
4584;DHT22;2304;47.606;12.186;2023-03-14T22:24:55;7.80;66.60
4584;DHT22;2304;47.606;12.186;2023-03-14T22:29:58;7.70;66.40
4584;DHT22;2304;47.606;12.186;2023-03-14T22:35:00;7.30;65.80
4584;DHT22;2304;47.606;12.186;2023-03-14T22:40:02;7.60;66.60
4584;DHT22;2304;47.606;12.186;2023-03-14T22:45:07;7.50;67.10
4584;DHT22;2304;47.606;12.186;2023-03-14T22:50:10;7.50;66.40
4584;DHT22;2304;47.606;12.186;2023-03-14T22:55:11;7.50;66.30
4584;DHT22;2304;47.606;12.186;2023-03-14T23:00:15;7.50;66.90
4584;DHT22;2304;47.606;12.186;2023-03-14T23:05:17;7.60;66.60
4584;DHT22;2304;47.606;12.186;2023-03-14T23:10:19;7.50;67.80
4584;DHT22;2304;47.606;12.186;2023-03-14T23:15:22;7.40;68.00
4584;DHT22;2304;47.606;12.186;2023-03-14T23:20:25;7.40;65.90
4584;DHT22;2304;47.606;12.186;2023-03-14T23:25:27;7.40;66.90
4584;DHT22;2304;47.606;12.186;2023-03-14T23:30:30;7.40;67.40
4584;DHT22;2304;47.606;12.186;2023-03-14T23:35:32;7.40;67.40
4584;DHT22;2304;47.606;12.186;2023-03-14T23:40:34;7.40;68.30
4584;DHT22;2304;47.606;12.186;2023-03-14T23:45:38;7.30;68.80
4584;DHT22;2304;47.606;12.186;2023-03-14T23:50:39;7.30;68.90
4584;DHT22;2304;47.606;12.186;2023-03-14T23:55:41;7.30;69.10
